Terminal Aerodrome Forecast
Issued by NWS

Home | Current Version | Previous Version | Text Only | Print | Product List | Glossary On
Versions: 1 2 3 4 5 6 7 8 9 10 11 12 13 14 15 16 17 18 19 20 21 22
000
FTUS43 KIND 161100
TAFBMG
TAF
KBMG 161120Z 1612/1712 01005KT 3SM BR BKN015
     FM161600 04007KT P6SM OVC020
     FM162000 02005KT P6SM SCT015 BKN040
     FM170100 03003KT P6SM FEW040
     FM170900 00000KT 3SM BR SCT250
      AMD LTD TO CLD VIS AND WIND TIL 161300=

USA.gov is the U.S. government's official web portal to all federal, state and local government web resources and services.